Time;durP1;ratioP1;P1;durP2;ratioP2;P2;SDS_P1;SDS_P2;PMS_P1;PMS_P2;Temp;Humidity;BMP_temperature;BMP_pressure;BME280_temperature;BME280_humidity;BME280_pressure;Samples;Min_cycle;Max_cycle;Signal;HPM_P1;HPM_P2
2020/08/17 00:02:08;;;;;;;2.68;2.48;;;;;;;23.81;71.00;99690.34;;;;-47
2020/08/17 00:05:08;;;;;;;2.95;2.65;;;;;;;23.80;71.00;99686.09;;;;-46
2020/08/17 00:08:08;;;;;;;3.29;2.72;;;;;;;23.79;71.01;99696.92;;;;-46
2020/08/17 00:11:08;;;;;;;2.69;2.49;;;;;;;23.79;71.05;99690.38;;;;-47
2020/08/17 00:14:08;;;;;;;2.99;2.70;;;;;;;23.78;70.97;99683.28;;;;-46
2020/08/17 00:17:08;;;;;;;3.39;2.56;;;;;;;23.78;71.00;99694.99;;;;-46
2020/08/17 00:20:08;;;;;;;2.79;2.59;;;;;;;23.78;70.99;99699.40;;;;-47
2020/08/17 00:23:08;;;;;;;2.81;2.51;;;;;;;23.77;70.95;99695.25;;;;-47
2020/08/17 00:26:08;;;;;;;2.89;2.61;;;;;;;23.77;70.98;99692.41;;;;-47
2020/08/17 00:29:08;;;;;;;2.69;2.48;;;;;;;23.77;70.96;99703.86;;;;-46
2020/08/17 00:32:08;;;;;;;2.59;2.39;;;;;;;23.76;71.00;99707.06;;;;-46
2020/08/17 00:35:08;;;;;;;2.66;2.46;;;;;;;23.76;70.96;99716.44;;;;-47
2020/08/17 00:38:08;;;;;;;2.66;2.46;;;;;;;23.76;70.98;99728.62;;;;-47
2020/08/17 00:41:08;;;;;;;2.65;2.45;;;;;;;23.75;70.99;99737.47;;;;-47
2020/08/17 00:44:08;;;;;;;2.85;2.56;;;;;;;23.76;70.96;99749.00;;;;-46
2020/08/17 00:47:08;;;;;;;2.75;2.55;;;;;;;23.75;70.97;99755.00;;;;-46
2020/08/17 00:50:08;;;;;;;2.63;2.40;;;;;;;23.74;70.95;99772.69;;;;-46
2020/08/17 00:53:08;;;;;;;2.82;2.60;;;;;;;23.74;70.95;99791.44;;;;-47
2020/08/17 00:56:08;;;;;;;2.79;2.55;;;;;;;23.74;70.97;99834.53;;;;-47
2020/08/17 00:59:08;;;;;;;2.63;2.43;;;;;;;23.73;71.01;99864.00;;;;-47
2020/08/17 01:02:08;;;;;;;2.70;2.50;;;;;;;23.73;70.96;99875.88;;;;-46
2020/08/17 01:05:08;;;;;;;2.67;2.47;;;;;;;23.73;70.94;99878.25;;;;-47
2020/08/17 01:08:08;;;;;;;2.56;2.34;;;;;;;23.72;70.96;99889.23;;;;-46
2020/08/17 01:11:08;;;;;;;2.60;2.40;;;;;;;23.72;70.92;99887.20;;;;-47
2020/08/17 01:14:08;;;;;;;2.71;2.49;;;;;;;23.72;70.98;99881.53;;;;-46
2020/08/17 01:17:08;;;;;;;4.90;2.51;;;;;;;23.71;71.02;99873.70;;;;-47
2020/08/17 01:20:08;;;;;;;2.63;2.43;;;;;;;23.71;70.90;99865.21;;;;-47
2020/08/17 01:23:08;;;;;;;2.51;2.31;;;;;;;23.71;70.97;99879.94;;;;-46
2020/08/17 01:26:08;;;;;;;3.15;2.41;;;;;;;23.71;70.92;99878.95;;;;-46
2020/08/17 01:29:08;;;;;;;2.59;2.39;;;;;;;23.70;70.90;99877.48;;;;-47
2020/08/17 01:32:08;;;;;;;2.57;2.27;;;;;;;23.70;70.94;99882.08;;;;-47
2020/08/17 01:35:08;;;;;;;2.61;2.41;;;;;;;23.69;70.92;99882.16;;;;-47
2020/08/17 01:38:08;;;;;;;2.50;2.30;;;;;;;23.69;70.87;99882.91;;;;-46
2020/08/17 01:41:08;;;;;;;2.61;2.41;;;;;;;23.69;70.91;99888.95;;;;-47
2020/08/17 01:44:08;;;;;;;2.46;2.26;;;;;;;23.69;70.90;99893.63;;;;-47
2020/08/17 01:47:08;;;;;;;2.35;2.16;;;;;;;23.69;70.91;99900.01;;;;-47
2020/08/17 01:50:08;;;;;;;2.20;2.02;;;;;;;23.69;70.92;99905.50;;;;-47
2020/08/17 01:53:08;;;;;;;2.40;2.20;;;;;;;23.68;70.87;99909.43;;;;-47
2020/08/17 01:56:08;;;;;;;2.27;2.03;;;;;;;23.68;70.92;99920.73;;;;-47
2020/08/17 01:59:08;;;;;;;2.45;2.24;;;;;;;23.68;70.88;99937.35;;;;-46
2020/08/17 02:02:08;;;;;;;2.64;2.44;;;;;;;23.67;70.86;99952.88;;;;-46
2020/08/17 02:05:08;;;;;;;2.35;2.15;;;;;;;23.67;70.88;99962.79;;;;-46
2020/08/17 02:08:08;;;;;;;2.36;2.17;;;;;;;23.68;70.90;99966.21;;;;-46
2020/08/17 02:11:08;;;;;;;2.43;2.21;;;;;;;23.67;70.86;99972.53;;;;-46
2020/08/17 02:14:08;;;;;;;2.33;2.15;;;;;;;23.67;70.84;99974.97;;;;-46
2020/08/17 02:17:08;;;;;;;2.51;2.31;;;;;;;23.66;70.87;99974.94;;;;-46
2020/08/17 02:20:08;;;;;;;2.42;2.22;;;;;;;23.67;70.89;99981.37;;;;-46
2020/08/17 02:23:08;;;;;;;2.71;2.14;;;;;;;23.66;70.88;99981.39;;;;-46
2020/08/17 02:26:08;;;;;;;2.46;2.26;;;;;;;23.66;70.85;99976.17;;;;-46
2020/08/17 02:29:08;;;;;;;2.29;2.09;;;;;;;23.66;70.91;99979.19;;;;-47
2020/08/17 02:32:08;;;;;;;2.48;2.28;;;;;;;23.65;70.93;99981.88;;;;-46
2020/08/17 02:35:08;;;;;;;2.35;2.15;;;;;;;23.66;70.91;99990.23;;;;-47
2020/08/17 02:38:08;;;;;;;2.40;2.23;;;;;;;23.65;70.95;99990.06;;;;-46
2020/08/17 02:41:08;;;;;;;2.39;2.19;;;;;;;23.66;70.94;99984.73;;;;-46
2020/08/17 02:44:08;;;;;;;2.21;2.11;;;;;;;23.65;71.00;99976.42;;;;-47
2020/08/17 02:47:08;;;;;;;2.60;2.18;;;;;;;23.64;71.00;99969.41;;;;-47
2020/08/17 02:50:08;;;;;;;2.34;2.18;;;;;;;23.64;70.98;99965.73;;;;-47
2020/08/17 02:53:08;;;;;;;2.69;2.22;;;;;;;23.64;70.94;99960.89;;;;-46
2020/08/17 02:56:08;;;;;;;2.49;2.29;;;;;;;23.63;70.98;99953.29;;;;-47
2020/08/17 02:59:09;;;;;;;2.17;2.02;;;;;;;23.64;70.97;99949.11;;;;-46
2020/08/17 03:02:08;;;;;;;2.40;2.20;;;;;;;23.63;70.99;99944.80;;;;-46
2020/08/17 03:05:08;;;;;;;2.43;2.23;;;;;;;23.63;71.09;99938.58;;;;-46
2020/08/17 03:08:08;;;;;;;2.13;1.99;;;;;;;23.63;70.97;99932.62;;;;-47
2020/08/17 03:11:08;;;;;;;2.37;2.17;;;;;;;23.62;71.03;99928.05;;;;-46
2020/08/17 03:14:08;;;;;;;2.16;2.06;;;;;;;23.62;71.04;99926.66;;;;-46
2020/08/17 03:17:08;;;;;;;2.27;2.13;;;;;;;23.61;71.12;99919.30;;;;-46
2020/08/17 03:20:08;;;;;;;2.41;2.21;;;;;;;23.62;71.03;99919.23;;;;-46
2020/08/17 03:23:08;;;;;;;2.25;2.06;;;;;;;23.61;71.07;99914.31;;;;-46
2020/08/17 03:26:08;;;;;;;2.06;1.96;;;;;;;23.61;71.06;99910.95;;;;-46
2020/08/17 03:29:08;;;;;;;2.42;2.08;;;;;;;23.61;71.06;99910.31;;;;-46
2020/08/17 03:32:08;;;;;;;2.08;1.98;;;;;;;23.61;71.06;99910.64;;;;-46
2020/08/17 03:35:08;;;;;;;2.11;2.01;;;;;;;23.60;71.11;99907.88;;;;-46
2020/08/17 03:38:08;;;;;;;2.44;2.24;;;;;;;23.60;71.09;99906.73;;;;-46
2020/08/17 03:41:08;;;;;;;2.27;2.13;;;;;;;23.59;71.09;99905.38;;;;-46
2020/08/17 03:44:08;;;;;;;2.22;2.09;;;;;;;23.60;71.07;99905.02;;;;-46
2020/08/17 03:47:08;;;;;;;2.09;1.97;;;;;;;23.59;71.14;99902.91;;;;-46
2020/08/17 03:50:08;;;;;;;2.17;2.07;;;;;;;23.59;71.12;99902.33;;;;-46
2020/08/17 03:53:08;;;;;;;2.04;1.94;;;;;;;23.58;71.17;99898.67;;;;-47
2020/08/17 03:56:08;;;;;;;2.27;2.11;;;;;;;23.58;71.11;99893.84;;;;-47
2020/08/17 03:59:08;;;;;;;2.17;2.07;;;;;;;23.57;71.14;99892.00;;;;-46
2020/08/17 04:02:08;;;;;;;2.63;2.20;;;;;;;23.58;71.16;99884.78;;;;-46
2020/08/17 04:05:08;;;;;;;2.25;2.05;;;;;;;23.58;71.22;99881.02;;;;-47
2020/08/17 04:08:08;;;;;;;2.17;2.04;;;;;;;23.57;71.15;99873.33;;;;-46
2020/08/17 04:11:08;;;;;;;2.64;2.16;;;;;;;23.57;71.17;99867.12;;;;-47
2020/08/17 04:14:08;;;;;;;2.31;2.11;;;;;;;23.56;71.14;99858.58;;;;-46
2020/08/17 04:17:08;;;;;;;2.21;2.07;;;;;;;23.55;71.14;99854.91;;;;-47
2020/08/17 04:20:08;;;;;;;2.07;1.87;;;;;;;23.56;71.19;99855.38;;;;-47
2020/08/17 04:23:08;;;;;;;2.23;2.03;;;;;;;23.55;71.19;99853.09;;;;-46
2020/08/17 04:26:08;;;;;;;1.99;1.89;;;;;;;23.55;71.25;99852.12;;;;-46
2020/08/17 04:29:08;;;;;;;2.23;2.08;;;;;;;23.55;71.22;99854.81;;;;-46
2020/08/17 04:32:08;;;;;;;2.25;2.05;;;;;;;23.55;71.25;99858.09;;;;-47
2020/08/17 04:35:08;;;;;;;2.30;2.10;;;;;;;23.54;71.20;99859.25;;;;-46
2020/08/17 04:38:08;;;;;;;2.18;2.03;;;;;;;23.54;71.25;99864.65;;;;-46
2020/08/17 04:41:08;;;;;;;2.17;2.02;;;;;;;23.54;71.27;99864.73;;;;-47
2020/08/17 04:44:08;;;;;;;2.20;2.00;;;;;;;23.54;71.19;99870.30;;;;-46
2020/08/17 04:47:08;;;;;;;2.23;2.03;;;;;;;23.53;71.24;99865.14;;;;-46
2020/08/17 04:51:08;;;;;;;2.13;2.00;;;;;;;23.54;71.16;99865.65;;;;-47
2020/08/17 04:54:08;;;;;;;2.08;1.98;;;;;;;23.54;71.28;99874.31;;;;-46
2020/08/17 04:57:08;;;;;;;2.37;2.11;;;;;;;23.53;71.22;99872.44;;;;-46
2020/08/17 05:00:08;;;;;;;2.13;2.00;;;;;;;23.53;71.22;99877.27;;;;-46
2020/08/17 05:03:08;;;;;;;2.03;1.89;;;;;;;23.53;71.22;99880.38;;;;-46
2020/08/17 05:06:08;;;;;;;2.02;1.91;;;;;;;23.52;71.22;99882.36;;;;-47
2020/08/17 05:09:08;;;;;;;2.14;2.00;;;;;;;23.52;71.22;99877.70;;;;-46
2020/08/17 05:12:08;;;;;;;2.21;1.93;;;;;;;23.52;71.27;99878.92;;;;-46
2020/08/17 05:15:08;;;;;;;2.21;2.08;;;;;;;23.51;71.25;99878.37;;;;-46
2020/08/17 05:18:08;;;;;;;2.26;2.10;;;;;;;23.51;71.21;99872.05;;;;-46
2020/08/17 05:21:08;;;;;;;2.38;2.18;;;;;;;23.52;71.24;99875.34;;;;-47
2020/08/17 05:24:08;;;;;;;2.02;1.91;;;;;;;23.51;71.28;99873.53;;;;-47
2020/08/17 05:29:08;;;;;;;2.21;2.04;;;;;;;23.50;71.56;99870.70;;;;-53
2020/08/17 05:32:08;;;;;;;3.63;3.27;;;;;;;23.47;75.09;99868.97;;;;-50
2020/08/17 05:35:08;;;;;;;4.75;3.69;;;;;;;23.43;76.03;99867.07;;;;-50
2020/08/17 05:38:08;;;;;;;4.34;3.75;;;;;;;23.39;76.96;99871.83;;;;-50
2020/08/17 05:41:08;;;;;;;5.85;3.92;;;;;;;23.34;77.07;99879.75;;;;-49
2020/08/17 05:44:08;;;;;;;4.26;3.51;;;;;;;23.30;76.45;99877.63;;;;-48
2020/08/17 05:47:08;;;;;;;5.63;3.51;;;;;;;23.32;76.05;99872.19;;;;-48
2020/08/17 05:50:08;;;;;;;5.51;3.34;;;;;;;23.34;75.66;99873.63;;;;-48
2020/08/17 05:53:08;;;;;;;4.84;3.30;;;;;;;23.36;75.23;99873.33;;;;-49
2020/08/17 05:56:08;;;;;;;4.38;3.00;;;;;;;23.38;74.89;99873.39;;;;-48
2020/08/17 05:59:08;;;;;;;4.01;2.81;;;;;;;23.39;74.57;99880.41;;;;-49
2020/08/17 06:02:08;;;;;;;5.51;3.10;;;;;;;23.40;74.31;99886.25;;;;-48
2020/08/17 06:05:08;;;;;;;4.85;2.92;;;;;;;23.41;74.06;99889.04;;;;-48
2020/08/17 06:08:08;;;;;;;4.53;2.94;;;;;;;23.42;73.96;99886.41;;;;-48
2020/08/17 06:11:08;;;;;;;4.29;2.79;;;;;;;23.42;73.78;99897.02;;;;-48
2020/08/17 06:14:08;;;;;;;3.82;2.74;;;;;;;23.43;73.64;99903.38;;;;-48
2020/08/17 06:17:08;;;;;;;4.48;2.65;;;;;;;23.43;73.49;99901.16;;;;-49
2020/08/17 06:20:08;;;;;;;2.70;2.50;;;;;;;23.43;73.39;99903.62;;;;-48
2020/08/17 06:23:08;;;;;;;2.98;2.60;;;;;;;23.43;73.34;99908.70;;;;-48
2020/08/17 06:26:08;;;;;;;4.31;2.65;;;;;;;23.44;73.21;99910.72;;;;-48
2020/08/17 06:29:08;;;;;;;3.39;2.91;;;;;;;23.44;73.17;99901.63;;;;-49
2020/08/17 06:32:08;;;;;;;4.27;2.89;;;;;;;23.45;73.05;99907.59;;;;-48
2020/08/17 06:35:08;;;;;;;4.18;2.84;;;;;;;23.44;73.05;99912.36;;;;-48
2020/08/17 06:38:08;;;;;;;3.11;2.64;;;;;;;23.44;72.97;99913.92;;;;-48
2020/08/17 06:41:08;;;;;;;3.01;2.60;;;;;;;23.44;72.94;99913.17;;;;-48
2020/08/17 06:44:08;;;;;;;2.79;2.58;;;;;;;23.45;72.91;99915.12;;;;-49
2020/08/17 06:47:08;;;;;;;3.61;2.59;;;;;;;23.44;72.94;99914.83;;;;-49
2020/08/17 06:50:08;;;;;;;3.03;2.74;;;;;;;23.44;72.85;99913.42;;;;-49
2020/08/17 06:53:08;;;;;;;2.87;2.47;;;;;;;23.44;72.85;99912.70;;;;-48
2020/08/17 06:56:08;;;;;;;2.89;2.61;;;;;;;23.44;72.85;99913.17;;;;-48
2020/08/17 06:59:08;;;;;;;2.84;2.52;;;;;;;23.44;72.81;99914.08;;;;-48
2020/08/17 07:02:08;;;;;;;3.61;2.61;;;;;;;23.43;72.79;99918.52;;;;-48
2020/08/17 07:05:08;;;;;;;3.07;2.57;;;;;;;23.43;72.75;99916.97;;;;-49
2020/08/17 07:08:08;;;;;;;2.75;2.55;;;;;;;23.44;72.75;99917.19;;;;-49
2020/08/17 07:11:08;;;;;;;2.88;2.36;;;;;;;23.43;72.69;99917.53;;;;-48
2020/08/17 07:14:08;;;;;;;2.55;2.33;;;;;;;23.44;72.68;99925.13;;;;-48
2020/08/17 07:17:08;;;;;;;2.55;2.35;;;;;;;23.43;72.63;99924.33;;;;-48
2020/08/17 07:20:08;;;;;;;2.65;2.45;;;;;;;23.42;72.64;99926.70;;;;-48
2020/08/17 07:23:08;;;;;;;2.47;2.27;;;;;;;23.43;72.61;99924.66;;;;-48
2020/08/17 07:26:08;;;;;;;3.05;2.49;;;;;;;23.43;72.57;99920.55;;;;-48
2020/08/17 07:29:08;;;;;;;2.60;2.40;;;;;;;23.42;72.58;99920.16;;;;-48
2020/08/17 07:32:08;;;;;;;2.70;2.48;;;;;;;23.42;72.57;99920.90;;;;-48
2020/08/17 07:35:08;;;;;;;2.75;2.40;;;;;;;23.43;72.56;99924.87;;;;-48
2020/08/17 07:39:08;;;;;;;2.53;2.33;;;;;;;23.42;72.57;99923.68;;;;-49
2020/08/17 07:42:08;;;;;;;2.62;2.29;;;;;;;23.42;72.50;99923.68;;;;-49
2020/08/17 07:45:08;;;;;;;7.40;2.83;;;;;;;23.40;72.90;99924.70;;;;-47
2020/08/17 07:48:08;;;;;;;10.91;2.89;;;;;;;23.40;74.29;99928.20;;;;-48
2020/08/17 07:51:08;;;;;;;7.16;2.55;;;;;;;23.43;74.12;99929.73;;;;-46
2020/08/17 07:54:08;;;;;;;5.88;2.67;;;;;;;23.45;73.95;99939.17;;;;-46
2020/08/17 07:57:08;;;;;;;6.56;3.00;;;;;;;23.47;73.99;99934.38;;;;-46
2020/08/17 08:00:08;;;;;;;12.22;2.84;;;;;;;23.50;73.85;99940.95;;;;-51
2020/08/17 08:03:08;;;;;;;4.39;2.79;;;;;;;23.50;73.84;99942.25;;;;-45
2020/08/17 08:06:08;;;;;;;7.17;2.74;;;;;;;23.53;73.72;99945.41;;;;-46
2020/08/17 08:09:08;;;;;;;7.54;2.84;;;;;;;23.55;73.85;99945.75;;;;-45
2020/08/17 08:12:08;;;;;;;4.55;2.56;;;;;;;23.56;73.67;99947.97;;;;-57
2020/08/17 08:15:08;;;;;;;7.27;2.80;;;;;;;23.57;73.58;99951.37;;;;-53
2020/08/17 08:18:08;;;;;;;5.41;2.51;;;;;;;23.60;73.63;99959.76;;;;-48
2020/08/17 08:21:08;;;;;;;5.75;2.50;;;;;;;23.61;73.71;99954.40;;;;-58
2020/08/17 08:24:08;;;;;;;4.21;2.46;;;;;;;23.63;73.64;99956.73;;;;-57
2020/08/17 08:27:08;;;;;;;4.16;2.57;;;;;;;23.64;73.45;99960.01;;;;-53
2020/08/17 08:30:08;;;;;;;3.69;2.47;;;;;;;23.65;73.38;99954.41;;;;-57
2020/08/17 08:33:08;;;;;;;4.09;2.35;;;;;;;23.66;73.35;99955.05;;;;-48
2020/08/17 08:36:08;;;;;;;3.19;2.43;;;;;;;23.66;73.34;99954.72;;;;-51
2020/08/17 08:39:08;;;;;;;4.89;2.43;;;;;;;23.68;73.37;99955.34;;;;-52
2020/08/17 08:42:08;;;;;;;4.05;2.27;;;;;;;23.69;73.34;99960.95;;;;-50
2020/08/17 08:45:08;;;;;;;6.21;2.25;;;;;;;23.69;73.33;99960.05;;;;-55
2020/08/17 08:48:08;;;;;;;6.56;2.80;;;;;;;23.70;73.29;99958.16;;;;-51
2020/08/17 08:51:08;;;;;;;5.11;2.40;;;;;;;23.72;73.19;99964.44;;;;-47
2020/08/17 08:54:08;;;;;;;4.07;2.49;;;;;;;23.73;73.25;99967.20;;;;-51
2020/08/17 08:57:08;;;;;;;4.65;2.57;;;;;;;23.74;73.24;99974.04;;;;-49
2020/08/17 09:00:08;;;;;;;2.62;2.37;;;;;;;23.75;73.23;99975.74;;;;-47
2020/08/17 09:03:08;;;;;;;4.99;2.41;;;;;;;23.76;73.20;99978.58;;;;-49
2020/08/17 09:06:08;;;;;;;5.19;2.40;;;;;;;23.76;73.10;99982.30;;;;-49
2020/08/17 09:09:08;;;;;;;5.32;2.42;;;;;;;23.77;72.95;99977.11;;;;-51
2020/08/17 09:12:08;;;;;;;3.65;2.48;;;;;;;23.74;73.03;99980.50;;;;-49
2020/08/17 09:15:08;;;;;;;7.51;2.49;;;;;;;23.76;73.15;99983.11;;;;-54
2020/08/17 09:18:08;;;;;;;3.69;2.45;;;;;;;23.77;73.04;99980.81;;;;-51
2020/08/17 09:21:08;;;;;;;3.07;2.26;;;;;;;23.78;72.98;99979.89;;;;-50
2020/08/17 09:24:08;;;;;;;4.17;2.16;;;;;;;23.79;72.90;99975.20;;;;-57
2020/08/17 09:27:08;;;;;;;3.55;2.29;;;;;;;23.80;72.87;99974.95;;;;-50
2020/08/17 09:30:08;;;;;;;6.84;2.31;;;;;;;23.80;72.87;99970.02;;;;-50
2020/08/17 09:33:08;;;;;;;4.67;2.37;;;;;;;23.79;72.83;99971.69;;;;-50
2020/08/17 09:36:08;;;;;;;3.69;2.50;;;;;;;23.78;72.82;99969.33;;;;-50
2020/08/17 09:39:08;;;;;;;4.40;2.47;;;;;;;23.77;72.79;99969.19;;;;-50
2020/08/17 09:42:08;;;;;;;5.39;2.35;;;;;;;23.77;72.77;99972.12;;;;-50
2020/08/17 09:45:08;;;;;;;3.55;2.39;;;;;;;23.77;72.75;99969.42;;;;-50
2020/08/17 09:48:08;;;;;;;3.89;2.40;;;;;;;23.77;72.61;99962.15;;;;-52
2020/08/17 09:51:08;;;;;;;3.41;2.18;;;;;;;23.77;72.63;99956.84;;;;-52
2020/08/17 09:54:08;;;;;;;5.08;2.41;;;;;;;23.77;72.56;99956.68;;;;-52
2020/08/17 09:57:08;;;;;;;4.28;2.31;;;;;;;23.75;72.51;99949.05;;;;-52
2020/08/17 10:00:08;;;;;;;3.26;2.13;;;;;;;23.75;72.51;99950.36;;;;-52
2020/08/17 10:03:08;;;;;;;3.04;2.20;;;;;;;23.76;72.35;99951.92;;;;-52
2020/08/17 10:06:09;;;;;;;4.30;2.45;;;;;;;23.76;72.41;99947.66;;;;-52
2020/08/17 10:09:08;;;;;;;4.42;2.16;;;;;;;23.76;72.40;99947.98;;;;-52
2020/08/17 10:12:08;;;;;;;2.53;2.27;;;;;;;23.76;72.28;99948.70;;;;-52
2020/08/17 10:15:08;;;;;;;3.53;2.31;;;;;;;23.76;72.30;99947.66;;;;-52
2020/08/17 10:18:08;;;;;;;2.67;2.18;;;;;;;23.76;72.26;99946.17;;;;-52
2020/08/17 10:21:08;;;;;;;2.89;2.25;;;;;;;23.76;72.30;99945.52;;;;-52
2020/08/17 10:24:08;;;;;;;3.62;2.26;;;;;;;23.76;72.21;99941.50;;;;-52
2020/08/17 10:27:08;;;;;;;3.27;1.99;;;;;;;23.76;72.19;99938.72;;;;-51
2020/08/17 10:30:08;;;;;;;3.83;2.39;;;;;;;23.75;72.22;99935.72;;;;-52
2020/08/17 10:33:08;;;;;;;3.65;2.26;;;;;;;23.75;72.13;99939.98;;;;-53
2020/08/17 10:36:08;;;;;;;2.93;2.00;;;;;;;23.75;72.10;99937.52;;;;-52
2020/08/17 10:39:08;;;;;;;2.43;2.17;;;;;;;23.75;72.08;99939.89;;;;-51
2020/08/17 10:42:08;;;;;;;3.53;2.10;;;;;;;23.76;72.19;99936.36;;;;-56
2020/08/17 10:45:08;;;;;;;2.60;1.99;;;;;;;23.76;72.13;99940.94;;;;-56
2020/08/17 10:48:08;;;;;;;2.56;2.13;;;;;;;23.75;72.03;99934.58;;;;-56
2020/08/17 10:51:08;;;;;;;3.80;2.05;;;;;;;23.75;72.03;99943.67;;;;-55
2020/08/17 10:54:08;;;;;;;2.90;2.07;;;;;;;23.74;71.99;99944.67;;;;-56
2020/08/17 10:57:08;;;;;;;3.66;2.09;;;;;;;23.74;71.95;99948.11;;;;-55
2020/08/17 11:00:08;;;;;;;3.09;2.19;;;;;;;23.73;71.92;99945.82;;;;-56
2020/08/17 11:03:08;;;;;;;3.39;2.05;;;;;;;23.73;71.94;99944.11;;;;-56
2020/08/17 11:06:08;;;;;;;2.33;2.02;;;;;;;23.73;71.95;99930.88;;;;-55
2020/08/17 11:09:08;;;;;;;2.26;1.99;;;;;;;23.73;71.84;99926.62;;;;-55
2020/08/17 11:12:08;;;;;;;6.12;2.12;;;;;;;23.71;71.81;99927.44;;;;-55
2020/08/17 11:15:08;;;;;;;3.57;2.07;;;;;;;23.71;71.77;99929.98;;;;-56
2020/08/17 11:18:08;;;;;;;3.04;1.97;;;;;;;23.71;71.76;99927.70;;;;-56
2020/08/17 11:21:08;;;;;;;2.60;1.96;;;;;;;23.70;71.76;99925.84;;;;-56
2020/08/17 11:24:08;;;;;;;3.91;2.11;;;;;;;23.70;71.81;99924.13;;;;-56
2020/08/17 11:27:08;;;;;;;2.85;2.02;;;;;;;23.70;71.77;99919.86;;;;-56
2020/08/17 11:30:08;;;;;;;2.36;2.04;;;;;;;23.69;71.76;99925.36;;;;-56
2020/08/17 11:33:08;;;;;;;3.28;2.06;;;;;;;23.69;71.73;99923.48;;;;-56
2020/08/17 11:36:08;;;;;;;3.16;2.01;;;;;;;23.68;71.65;99923.75;;;;-56
2020/08/17 11:39:08;;;;;;;2.07;1.87;;;;;;;23.68;71.69;99921.62;;;;-56
2020/08/17 11:42:08;;;;;;;2.81;1.89;;;;;;;23.68;71.71;99922.77;;;;-56
2020/08/17 11:45:08;;;;;;;2.41;1.99;;;;;;;23.68;71.69;99920.48;;;;-56
2020/08/17 11:48:08;;;;;;;3.13;1.97;;;;;;;23.67;71.69;99920.48;;;;-56
2020/08/17 11:51:08;;;;;;;3.10;1.80;;;;;;;23.67;71.67;99921.47;;;;-56
2020/08/17 11:54:08;;;;;;;3.21;1.94;;;;;;;23.67;71.65;99926.39;;;;-56
2020/08/17 11:57:08;;;;;;;2.22;1.79;;;;;;;23.66;71.64;99920.52;;;;-56
2020/08/17 12:00:08;;;;;;;2.06;1.90;;;;;;;23.66;71.69;99919.70;;;;-55
2020/08/17 12:03:08;;;;;;;3.34;1.99;;;;;;;23.66;71.65;99915.80;;;;-56
2020/08/17 12:06:08;;;;;;;3.77;2.02;;;;;;;23.65;71.89;99912.27;;;;-56
2020/08/17 12:09:07;;;;;;;3.72;2.22;;;;;;;23.65;71.72;99907.20;;;;-56
2020/08/17 12:12:08;;;;;;;4.42;2.08;;;;;;;23.65;71.70;99905.73;;;;-56
2020/08/17 12:15:08;;;;;;;4.61;2.13;;;;;;;23.65;71.61;99912.36;;;;-57
2020/08/17 12:18:08;;;;;;;3.73;2.05;;;;;;;23.64;71.64;99904.69;;;;-55
2020/08/17 12:21:08;;;;;;;3.08;1.97;;;;;;;23.64;71.59;99911.40;;;;-56
2020/08/17 12:24:08;;;;;;;3.13;2.08;;;;;;;23.64;71.67;99908.47;;;;-55
2020/08/17 12:27:08;;;;;;;4.05;2.04;;;;;;;23.64;71.59;99912.64;;;;-56
2020/08/17 12:30:08;;;;;;;3.64;2.17;;;;;;;23.64;71.61;99911.15;;;;-56
2020/08/17 12:33:08;;;;;;;2.53;1.85;;;;;;;23.64;71.60;99906.56;;;;-56
2020/08/17 12:36:08;;;;;;;2.57;1.89;;;;;;;23.63;71.55;99909.87;;;;-56
2020/08/17 12:39:08;;;;;;;3.01;1.95;;;;;;;23.63;71.54;99914.63;;;;-56
2020/08/17 12:42:08;;;;;;;2.93;2.02;;;;;;;23.61;71.61;99911.77;;;;-56
2020/08/17 12:45:08;;;;;;;1.94;1.80;;;;;;;23.62;71.61;99913.19;;;;-56
2020/08/17 12:48:08;;;;;;;2.87;1.91;;;;;;;23.61;71.57;99919.30;;;;-57
2020/08/17 12:51:08;;;;;;;2.15;1.81;;;;;;;23.61;71.59;99916.52;;;;-56
2020/08/17 12:54:08;;;;;;;4.23;2.21;;;;;;;23.62;71.98;99908.59;;;;-50
2020/08/17 12:57:08;;;;;;;5.53;1.89;;;;;;;23.63;72.11;99909.77;;;;-53
2020/08/17 13:00:10;;;;;;;4.48;2.01;;;;;;;23.64;72.18;99906.25;;;;-51
2020/08/17 13:03:09;;;;;;;4.77;1.99;;;;;;;23.66;72.18;99907.34;;;;-51
2020/08/17 13:06:09;;;;;;;3.25;1.97;;;;;;;23.66;72.18;99899.58;;;;-51
2020/08/17 13:09:08;;;;;;;2.47;1.97;;;;;;;23.68;72.27;99902.90;;;;-51
2020/08/17 13:12:09;;;;;;;2.42;1.93;;;;;;;23.70;72.25;99899.75;;;;-51
2020/08/17 13:15:08;;;;;;;3.37;2.00;;;;;;;23.71;72.25;99896.20;;;;-51
2020/08/17 13:18:11;;;;;;;3.36;1.95;;;;;;;23.72;72.32;99892.83;;;;-51
2020/08/17 13:21:08;;;;;;;2.66;2.02;;;;;;;23.73;72.36;99893.97;;;;-55
2020/08/17 13:24:08;;;;;;;6.12;2.01;;;;;;;23.73;72.70;99892.80;;;;-52
2020/08/17 13:27:08;;;;;;;12.00;2.50;;;;;;;23.75;72.64;99888.45;;;;-52
2020/08/17 13:30:08;;;;;;;6.79;2.15;;;;;;;23.78;72.84;99883.56;;;;-53
2020/08/17 13:33:08;;;;;;;9.65;2.29;;;;;;;23.79;72.76;99882.81;;;;-52
2020/08/17 13:36:08;;;;;;;5.11;2.15;;;;;;;23.80;72.76;99880.50;;;;-51
2020/08/17 13:39:08;;;;;;;8.84;2.34;;;;;;;23.82;72.93;99874.58;;;;-52
2020/08/17 13:42:08;;;;;;;8.17;2.22;;;;;;;23.84;72.62;99875.02;;;;-51
2020/08/17 13:45:08;;;;;;;5.09;2.08;;;;;;;23.84;72.57;99871.42;;;;-51
2020/08/17 13:48:08;;;;;;;8.01;2.32;;;;;;;23.84;72.77;99872.23;;;;-48
2020/08/17 13:51:08;;;;;;;8.17;2.39;;;;;;;23.84;72.63;99863.64;;;;-48
2020/08/17 13:54:08;;;;;;;4.74;2.11;;;;;;;23.85;72.61;99861.17;;;;-50
2020/08/17 13:57:08;;;;;;;6.11;2.13;;;;;;;23.85;72.56;99857.65;;;;-49
2020/08/17 14:00:08;;;;;;;4.71;2.38;;;;;;;23.86;72.63;99851.72;;;;-50
2020/08/17 14:03:08;;;;;;;8.42;2.42;;;;;;;23.87;72.60;99846.14;;;;-55
2020/08/17 14:06:08;;;;;;;5.16;2.30;;;;;;;23.87;72.59;99839.93;;;;-50
2020/08/17 14:09:08;;;;;;;4.10;2.11;;;;;;;23.89;72.51;99837.84;;;;-53
2020/08/17 14:12:08;;;;;;;7.05;2.39;;;;;;;23.90;72.51;99837.50;;;;-51
2020/08/17 14:15:08;;;;;;;9.15;2.25;;;;;;;23.91;72.54;99835.44;;;;-49
2020/08/17 14:18:08;;;;;;;4.49;2.10;;;;;;;23.92;72.55;99834.16;;;;-50
2020/08/17 14:21:08;;;;;;;5.55;2.24;;;;;;;23.93;72.47;99829.59;;;;-52
2020/08/17 14:24:08;;;;;;;6.54;2.15;;;;;;;23.94;72.53;99830.79;;;;-53
2020/08/17 14:27:08;;;;;;;7.79;2.24;;;;;;;23.93;72.56;99826.97;;;;-57
2020/08/17 14:30:08;;;;;;;5.20;2.30;;;;;;;23.93;72.43;99820.83;;;;-53
2020/08/17 14:33:08;;;;;;;4.72;2.30;;;;;;;23.95;72.54;99825.02;;;;-53
2020/08/17 14:36:08;;;;;;;5.43;2.27;;;;;;;23.95;72.46;99817.17;;;;-50
2020/08/17 14:39:08;;;;;;;5.01;2.21;;;;;;;23.94;72.42;99805.14;;;;-50
2020/08/17 14:42:08;;;;;;;7.04;2.33;;;;;;;23.94;72.51;99801.70;;;;-50
2020/08/17 14:45:08;;;;;;;4.78;2.23;;;;;;;23.95;72.50;99795.40;;;;-51
2020/08/17 14:48:08;;;;;;;5.61;2.16;;;;;;;23.96;72.45;99796.86;;;;-50
2020/08/17 14:51:08;;;;;;;6.46;2.44;;;;;;;23.96;72.41;99796.68;;;;-51
2020/08/17 14:54:08;;;;;;;9.63;2.09;;;;;;;23.97;72.40;99796.58;;;;-52
2020/08/17 14:57:08;;;;;;;5.46;2.23;;;;;;;23.98;72.35;99792.63;;;;-51
2020/08/17 15:00:08;;;;;;;6.69;2.33;;;;;;;23.98;72.40;99793.20;;;;-48
2020/08/17 15:03:07;;;;;;;4.93;2.23;;;;;;;23.99;72.35;99796.20;;;;-52
2020/08/17 15:06:08;;;;;;;4.49;2.29;;;;;;;23.99;72.35;99798.66;;;;-52
2020/08/17 15:09:08;;;;;;;4.31;2.25;;;;;;;24.02;72.29;99801.47;;;;-53
2020/08/17 15:12:08;;;;;;;6.47;2.20;;;;;;;24.02;72.27;99795.41;;;;-52
2020/08/17 15:15:08;;;;;;;5.06;2.11;;;;;;;24.04;72.23;99793.56;;;;-54
2020/08/17 15:18:08;;;;;;;4.49;2.12;;;;;;;24.04;72.22;99785.38;;;;-54
2020/08/17 15:21:08;;;;;;;4.93;2.09;;;;;;;24.05;72.15;99784.04;;;;-57
2020/08/17 15:24:08;;;;;;;4.69;2.18;;;;;;;24.05;72.30;99782.66;;;;-50
2020/08/17 15:27:08;;;;;;;4.69;2.15;;;;;;;24.06;72.20;99787.95;;;;-51
2020/08/17 15:30:08;;;;;;;4.09;1.91;;;;;;;24.07;72.13;99790.78;;;;-49
2020/08/17 15:33:08;;;;;;;5.41;2.01;;;;;;;24.08;72.20;99793.63;;;;-54
2020/08/17 15:36:08;;;;;;;3.59;1.86;;;;;;;24.08;72.24;99801.91;;;;-51
2020/08/17 15:39:08;;;;;;;3.57;2.09;;;;;;;24.07;72.16;99800.20;;;;-50
2020/08/17 15:42:08;;;;;;;2.97;2.15;;;;;;;24.09;72.08;99792.94;;;;-50
2020/08/17 15:45:08;;;;;;;3.93;1.90;;;;;;;24.10;72.16;99790.56;;;;-49
2020/08/17 15:48:08;;;;;;;5.43;2.23;;;;;;;24.10;72.21;99785.49;;;;-48
2020/08/17 15:51:08;;;;;;;3.99;2.03;;;;;;;24.10;72.21;99783.27;;;;-49
2020/08/17 15:54:08;;;;;;;3.89;1.86;;;;;;;24.11;72.20;99779.72;;;;-51
2020/08/17 15:57:08;;;;;;;4.09;1.89;;;;;;;24.11;72.06;99781.10;;;;-52
2020/08/17 16:00:08;;;;;;;3.71;2.17;;;;;;;24.12;72.09;99781.98;;;;-48
2020/08/17 16:03:10;;;;;;;4.77;2.18;;;;;;;24.13;72.12;99775.67;;;;-54
2020/08/17 16:06:08;;;;;;;3.65;2.10;;;;;;;24.13;72.16;99778.77;;;;-53
2020/08/17 16:09:10;;;;;;;4.13;2.14;;;;;;;24.13;72.22;99774.25;;;;-52
2020/08/17 16:12:08;;;;;;;4.41;2.08;;;;;;;24.15;72.17;99771.53;;;;-48
2020/08/17 16:15:08;;;;;;;3.40;1.95;;;;;;;24.15;72.08;99769.64;;;;-50
2020/08/17 16:18:08;;;;;;;5.59;2.07;;;;;;;24.16;72.22;99764.48;;;;-50
2020/08/17 16:21:08;;;;;;;8.11;2.16;;;;;;;24.17;72.11;99768.77;;;;-47
2020/08/17 16:24:08;;;;;;;3.72;1.88;;;;;;;24.17;72.22;99769.02;;;;-58
2020/08/17 16:27:08;;;;;;;4.19;2.05;;;;;;;24.18;72.04;99773.11;;;;-53
2020/08/17 16:30:08;;;;;;;2.04;1.84;;;;;;;24.18;72.08;99775.23;;;;-56
2020/08/17 16:33:08;;;;;;;3.31;2.00;;;;;;;24.19;72.13;99776.18;;;;-51
2020/08/17 16:36:08;;;;;;;3.37;1.90;;;;;;;24.19;72.09;99777.63;;;;-52
2020/08/17 16:39:07;;;;;;;4.51;2.05;;;;;;;24.19;72.19;99777.96;;;;-48
2020/08/17 16:42:08;;;;;;;4.79;1.88;;;;;;;24.20;72.14;99778.61;;;;-58
2020/08/17 16:45:08;;;;;;;3.99;2.10;;;;;;;24.21;72.19;99781.09;;;;-50
2020/08/17 16:48:08;;;;;;;3.34;1.90;;;;;;;24.21;72.08;99771.94;;;;-50
2020/08/17 16:51:08;;;;;;;2.69;1.95;;;;;;;24.20;71.83;99767.80;;;;-50
2020/08/17 16:54:08;;;;;;;3.21;1.80;;;;;;;24.18;72.00;99760.72;;;;-50
2020/08/17 16:57:08;;;;;;;4.71;1.93;;;;;;;24.17;71.92;99770.71;;;;-50
2020/08/17 17:00:08;;;;;;;3.08;1.95;;;;;;;24.16;71.93;99774.35;;;;-50